MMCE 090141Z 05008KT 7SM SKC 27/25 A2994 RMK HZY= 090142

MMCE 090040Z 06005KT 7SM SKC 27/23 A2992 RMK HZY= 090040

MMCE 082343Z 04005KT 7SM SCT020 27/23 A2991 RMK SLP125 58000 953 8/100 HZY= 082345

MMCE 082240Z 05008KT 7SM SCT020 28/24 A2991 RMK 8/100 HZY= 082241

MMCE 082140Z 03010KT 7SM SCT020CB 27/24 A2991 RMK 8/300 HZY= 082142

MMCE 082040Z 01014KT 7SM SCT020CB 28/25 A2992 RMK SLP126 57023 900 8/300 HZY= 082041

MMCE 081940Z 05006KT 7SM BKN020 29/24 A2993 RMK 8/200 MDT CU= 081941

MMCE 081840Z 11008KT 7SM BKN020 30/24 A2995 RMK 8/100 HZY= 081842

MMCE 081740Z 11010KT 7SM SKC 29/23 A2998 RMK SLP149 57010 900 HZY= 081741

MMCE 081640Z 14012KT 7SM SKC 28/23 A3001 RMK HZY= 081640

MMCE 081540Z 14016KT 7SM SKC 27/24 A3002 RMK HZY= 081540

MMCE 081440Z 12010KT 7SM SKC 27/24 A3001 RMK SLP159 52017 953 HZY= 081441

MMCE 081340Z 14010KT 7SM SKC 26/23 A2999 RMK HZY= 081340

MMCE 081240Z 14008KT 7SM SKC 25/23 A2997 RMK HZY= 081240

MMCE 081152Z 12005KT 7SM SKC 25/23 A2996 RMK SLP142 5//// 900 HZYT RTS= 081154

MMCE 080146Z 05004KT 6SM FEW010 SCT020 BKN065 26/24 A2996 RMK 60025 8/470 HZY RAE30= 080148

MMCE 080054Z 04009KT 5SM RA SCT010 BKN015TCU 26/24 A2995 RMK 60465 8/200 RAB50= 080058

SPECI MMCE 080036Z 05005KT 5SM SCT010 BKN030CB 26/24 A2995 RMK 8/300 HZY RAE30= 080037

SPECI MMCE 080010Z 08013KT 1 1/2SM +RA SCT010 BKN030CB 27/25 A2995 RMK 8/300 RAB08= 080012

MMCE 072352Z 02007KT 7SM FEW010 SCT020CB 27/25 A2992 RMK SLP129 51004 900 8/300 PCPN 2ND QUAD= 072354

MMCE 072252Z 02006KT 7SM FEW025TCU 28/25 A2992 RMK 8/200 AC= 072253

MMCE 072144Z 08007KT 7SM SKC 31/22 A2990 RMK FU SSW CU= 072145

MMCE 072045Z 11005KT 7SM FEW025 30/23 A2991 RMK SLP125 57024 906 8/100 CI= 072046

MMCE 071958Z RTD 11011KT 7SM FEW020 30/23 A2992 RMK 8/100 CI= 071959

MMCE 071848Z 12010KT 7SM FEW020 30/23 A2995 RMK 8/100 CI= 071849

MMCE 071754Z 10008KT 7SM SKC 29/23 A2998 RMK SLP149 57012 900= 071755

MMCE 071655Z 13012KT 7SM SKC 28/23 A3001 RMK CI= 071656

MMCE 071542Z 12007KT 7SM SKC 27/23 A3002 RMK SC CI= 071542

MMCE 071449Z 14011KT 7SM SCT300 27/23 A3002 RMK SLP161 52019 900 8/008= 071450

MMCE 071354Z 15012KT 7SM SCT300 26/23 A2999 RMK 8/008= 071354

MMCE 071247Z 13009KT 7SM SCT300 25/23 A2997 RMK 8/008= 071248

MMCE 071204Z RTD 14012KT 7SM SKC 25/23 A2996 RMK SLP142 5//// 954 RTS= 071206

MMCE 070146Z 05005KT 7SM SKC 27/24 A2995= 070149

MMCE 070048Z 05004KT 7SM SKC 27/24 A2994= 070050

MMCE 062345Z 04007KT 7SM SKC 27/24 A2992 RMK SLP129 52010 959= 062347

MMCE 062252Z 03008KT 7SM SKC 28/24 A2990= 062253

MMCE 062148Z 09006KT 7SM SKC 31/21 A2989= 062150

MMCE 062045Z 10008KT 7SM SKC 31/21 A2989 RMK SLP119 57030 962= 062046

MMCE 061946Z 14009KT 7SM SKC 30/21 A2991= 061950

MMCE 061845Z 13010KT 7SM SKC 30/22 A2994= 061846

MMCE 061745Z 12012KT 7SM SKC 30/21 A2998 RMK SLP149 57014 960= 061745

MMCE 061646Z 13012KT 7SM SKC 28/22 A3000= 061646

MMCE 061544Z 12012KT 7SM SKC 28/21 A3002= 061545

MMCE 061450Z 12011KT 7SM SKC 27/21 A3002 RMK SLP163 52017 960= 061453

MMCE 061350Z 12011KT 7SM SKC 26/21 A2999= 061352

MMCE 061250Z 15008KT 7SM SKC 24/21 A2998= 061252

MMCE 061151Z 15006KT 7SM SKC 24/21 A2997 RMK SLP146 5//// 963= 061153

MMCE 061050Z 15006KT 7SM SKC 24/21 A2997= 061052

MMCE 061012Z RTD 15005KT 7SM SKC 24/21 A2996 RMK RTS= 061013

MMCE 060340Z 05008KT 7SM SKC 26/22 A3001 RMK HZY= 060340